KRWF/RWF METAR and TAF weather

Enter ICAO airport designator
Station Type Date Time Source
KRWF METAR 2019/06/16 20:53 UTC NOAA

KRWF 162053Z AUTO 13004KT 10SM FEW070 24/16 A2985 RMK AO2 SLP104 T02440161 55009


Station Type Date Time Source
KRWF Decoded METAR 2019/06/16 20:53 UTC NOAA

REDWOOD FALLS MUNICIPAL, MN, United States (KRWF) 44-33N 95-05W 311M
Jun 16, 2019 - 04:53 PM EDT / 2019.06.16 2053 UTC
Wind: from the SE (130 degrees) at 5 MPH (4 KT):0
Visibility: 10 mile(s):0
Sky conditions: mostly clear
Temperature: 75.9 F (24.4 C)
Dew Point: 61.0 F (16.1 C)
Relative Humidity: 59%
Pressure (altimeter): 29.85 in. Hg (1010 hPa)
Pressure tendency: 0.03 inches (0.9 hPa) lower than three hours ago
ob: KRWF 162053Z AUTO 13004KT 10SM FEW070 24/16 A2985 RMK AO2 SLP104 T02440161 55009
cycle: 21

Station Type Date Time Source
KRWF TAF 2019/06/16 21:12 UTC NOAA

TAF
AMD KRWF 162111Z 1621/1718 VRB04KT P6SM SCT050
FM162300 VRB04KT P6SM FEW120
FM171400 34005KT P6SM FEW025

Example: see airport list